sensor_id;sensor_type;location;lat;lon;timestamp;temperature;humidity
62476;DHT22;50739;45.670;11.936;2023-02-28T00:00:46;4.79;61.19
62476;DHT22;50739;45.670;11.936;2023-02-28T00:05:49;4.97;60.63
62476;DHT22;50739;45.670;11.936;2023-02-28T00:10:51;4.66;61.70
62476;DHT22;50739;45.670;11.936;2023-02-28T00:16:00;4.72;61.63
62476;DHT22;50739;45.670;11.936;2023-02-28T00:21:04;4.63;61.46
62476;DHT22;50739;45.670;11.936;2023-02-28T00:26:06;4.70;61.21
62476;DHT22;50739;45.670;11.936;2023-02-28T00:31:07;4.85;60.77
62476;DHT22;50739;45.670;11.936;2023-02-28T00:36:11;4.67;61.40
62476;DHT22;50739;45.670;11.936;2023-02-28T00:41:13;4.48;62.01
62476;DHT22;50739;45.670;11.936;2023-02-28T00:46:15;4.21;62.68
62476;DHT22;50739;45.670;11.936;2023-02-28T00:51:18;4.22;62.88
62476;DHT22;50739;45.670;11.936;2023-02-28T00:56:20;4.19;62.81
62476;DHT22;50739;45.670;11.936;2023-02-28T01:01:22;4.14;62.89
62476;DHT22;50739;45.670;11.936;2023-02-28T01:06:26;4.35;62.52
62476;DHT22;50739;45.670;11.936;2023-02-28T01:11:27;4.17;62.83
62476;DHT22;50739;45.670;11.936;2023-02-28T01:16:30;4.31;62.84
62476;DHT22;50739;45.670;11.936;2023-02-28T01:21:33;4.39;62.50
62476;DHT22;50739;45.670;11.936;2023-02-28T01:26:36;4.46;62.15
62476;DHT22;50739;45.670;11.936;2023-02-28T01:31:37;4.42;62.14
62476;DHT22;50739;45.670;11.936;2023-02-28T01:36:41;4.48;61.64
62476;DHT22;50739;45.670;11.936;2023-02-28T01:41:43;4.57;61.13
62476;DHT22;50739;45.670;11.936;2023-02-28T01:46:45;4.49;61.33
62476;DHT22;50739;45.670;11.936;2023-02-28T01:51:50;4.67;60.88
62476;DHT22;50739;45.670;11.936;2023-02-28T01:56:57;4.46;61.05
62476;DHT22;50739;45.670;11.936;2023-02-28T02:02:01;4.36;61.68
62476;DHT22;50739;45.670;11.936;2023-02-28T02:07:04;4.29;61.98
62476;DHT22;50739;45.670;11.936;2023-02-28T02:12:12;4.31;61.95
62476;DHT22;50739;45.670;11.936;2023-02-28T02:17:26;4.28;62.29
62476;DHT22;50739;45.670;11.936;2023-02-28T02:22:49;4.25;62.07
62476;DHT22;50739;45.670;11.936;2023-02-28T02:28:11;4.26;62.29
62476;DHT22;50739;45.670;11.936;2023-02-28T02:39:05;4.36;62.06
62476;DHT22;50739;45.670;11.936;2023-02-28T02:44:13;4.34;62.44
62476;DHT22;50739;45.670;11.936;2023-02-28T02:49:21;4.36;62.52
62476;DHT22;50739;45.670;11.936;2023-02-28T02:54:28;4.35;62.58
62476;DHT22;50739;45.670;11.936;2023-02-28T02:59:32;4.50;61.91
62476;DHT22;50739;45.670;11.936;2023-02-28T03:04:40;4.53;62.15
62476;DHT22;50739;45.670;11.936;2023-02-28T03:09:51;4.63;61.68
62476;DHT22;50739;45.670;11.936;2023-02-28T03:15:00;4.52;61.91
62476;DHT22;50739;45.670;11.936;2023-02-28T03:20:13;4.56;61.90
62476;DHT22;50739;45.670;11.936;2023-02-28T03:25:24;4.48;62.25
62476;DHT22;50739;45.670;11.936;2023-02-28T03:30:31;4.57;62.30
62476;DHT22;50739;45.670;11.936;2023-02-28T03:35:37;4.50;62.59
62476;DHT22;50739;45.670;11.936;2023-02-28T03:40:47;4.39;63.01
62476;DHT22;50739;45.670;11.936;2023-02-28T03:45:51;4.42;63.00
62476;DHT22;50739;45.670;11.936;2023-02-28T03:50:55;4.59;62.71
62476;DHT22;50739;45.670;11.936;2023-02-28T03:56:05;4.57;62.73
62476;DHT22;50739;45.670;11.936;2023-02-28T04:01:12;4.66;62.30
62476;DHT22;50739;45.670;11.936;2023-02-28T04:06:16;4.74;62.12
62476;DHT22;50739;45.670;11.936;2023-02-28T04:11:22;4.76;62.18
62476;DHT22;50739;45.670;11.936;2023-02-28T04:16:25;4.74;62.26
62476;DHT22;50739;45.670;11.936;2023-02-28T04:21:28;4.56;62.97
62476;DHT22;50739;45.670;11.936;2023-02-28T04:26:31;4.69;62.32
62476;DHT22;50739;45.670;11.936;2023-02-28T04:31:34;4.76;62.42
62476;DHT22;50739;45.670;11.936;2023-02-28T04:36:35;4.63;62.93
62476;DHT22;50739;45.670;11.936;2023-02-28T04:41:39;4.77;62.46
62476;DHT22;50739;45.670;11.936;2023-02-28T04:46:40;4.74;62.66
62476;DHT22;50739;45.670;11.936;2023-02-28T04:51:43;4.81;62.57
62476;DHT22;50739;45.670;11.936;2023-02-28T04:56:46;4.72;62.96
62476;DHT22;50739;45.670;11.936;2023-02-28T05:01:50;4.72;63.17
62476;DHT22;50739;45.670;11.936;2023-02-28T05:06:52;4.70;62.95
62476;DHT22;50739;45.670;11.936;2023-02-28T05:11:55;4.77;62.63
62476;DHT22;50739;45.670;11.936;2023-02-28T05:16:57;4.79;62.77
62476;DHT22;50739;45.670;11.936;2023-02-28T05:21:59;4.77;62.76
62476;DHT22;50739;45.670;11.936;2023-02-28T05:27:02;4.74;63.12
62476;DHT22;50739;45.670;11.936;2023-02-28T05:32:04;4.66;63.67
62476;DHT22;50739;45.670;11.936;2023-02-28T05:37:06;4.66;63.57
62476;DHT22;50739;45.670;11.936;2023-02-28T05:42:13;4.56;63.63
62476;DHT22;50739;45.670;11.936;2023-02-28T05:47:15;4.63;63.56
62476;DHT22;50739;45.670;11.936;2023-02-28T05:52:17;4.49;64.23
62476;DHT22;50739;45.670;11.936;2023-02-28T05:57:20;4.39;64.34
62476;DHT22;50739;45.670;11.936;2023-02-28T06:02:22;4.44;64.40
62476;DHT22;50739;45.670;11.936;2023-02-28T06:07:24;4.41;64.62
62476;DHT22;50739;45.670;11.936;2023-02-28T06:12:27;4.38;64.99
62476;DHT22;50739;45.670;11.936;2023-02-28T06:17:29;4.39;65.20
62476;DHT22;50739;45.670;11.936;2023-02-28T06:22:31;4.41;64.85
62476;DHT22;50739;45.670;11.936;2023-02-28T06:27:34;4.60;64.58
62476;DHT22;50739;45.670;11.936;2023-02-28T06:32:36;4.57;64.63
62476;DHT22;50739;45.670;11.936;2023-02-28T06:37:38;4.66;64.56
62476;DHT22;50739;45.670;11.936;2023-02-28T06:42:41;4.80;63.83
62476;DHT22;50739;45.670;11.936;2023-02-28T06:47:43;4.83;62.91
62476;DHT22;50739;45.670;11.936;2023-02-28T06:52:45;5.02;62.89
62476;DHT22;50739;45.670;11.936;2023-02-28T06:57:49;5.00;62.61
62476;DHT22;50739;45.670;11.936;2023-02-28T07:02:51;5.20;62.59
62476;DHT22;50739;45.670;11.936;2023-02-28T07:07:54;5.15;63.00
62476;DHT22;50739;45.670;11.936;2023-02-28T07:12:59;5.21;62.73
62476;DHT22;50739;45.670;11.936;2023-02-28T07:18:01;5.25;62.85
62476;DHT22;50739;45.670;11.936;2023-02-28T07:23:03;5.31;62.85
62476;DHT22;50739;45.670;11.936;2023-02-28T07:28:06;5.45;61.95
62476;DHT22;50739;45.670;11.936;2023-02-28T07:33:08;5.65;61.84
62476;DHT22;50739;45.670;11.936;2023-02-28T07:38:10;5.67;61.65
62476;DHT22;50739;45.670;11.936;2023-02-28T07:43:15;5.80;61.15
62476;DHT22;50739;45.670;11.936;2023-02-28T07:48:17;5.96;60.75
62476;DHT22;50739;45.670;11.936;2023-02-28T07:53:18;5.94;60.91
62476;DHT22;50739;45.670;11.936;2023-02-28T07:58:22;6.07;60.00
62476;DHT22;50739;45.670;11.936;2023-02-28T08:03:24;6.08;60.63
62476;DHT22;50739;45.670;11.936;2023-02-28T08:08:26;6.28;59.79
62476;DHT22;50739;45.670;11.936;2023-02-28T08:13:33;6.38;60.01
62476;DHT22;50739;45.670;11.936;2023-02-28T08:18:35;6.50;59.94
62476;DHT22;50739;45.670;11.936;2023-02-28T08:23:36;6.57;59.53
62476;DHT22;50739;45.670;11.936;2023-02-28T08:28:40;6.63;59.81
62476;DHT22;50739;45.670;11.936;2023-02-28T08:33:42;6.81;58.76
62476;DHT22;50739;45.670;11.936;2023-02-28T08:38:45;6.80;59.49
62476;DHT22;50739;45.670;11.936;2023-02-28T08:43:48;6.86;58.59
62476;DHT22;50739;45.670;11.936;2023-02-28T08:48:52;6.81;59.29
62476;DHT22;50739;45.670;11.936;2023-02-28T08:53:55;6.97;58.98
62476;DHT22;50739;45.670;11.936;2023-02-28T08:58:59;7.05;57.78
62476;DHT22;50739;45.670;11.936;2023-02-28T09:04:01;7.25;57.73
62476;DHT22;50739;45.670;11.936;2023-02-28T09:09:03;7.49;57.14
62476;DHT22;50739;45.670;11.936;2023-02-28T09:14:08;7.56;57.14
62476;DHT22;50739;45.670;11.936;2023-02-28T09:19:10;7.69;57.36
62476;DHT22;50739;45.670;11.936;2023-02-28T09:24:12;7.77;56.10
62476;DHT22;50739;45.670;11.936;2023-02-28T09:29:16;7.77;55.94
62476;DHT22;50739;45.670;11.936;2023-02-28T09:34:18;7.87;55.83
62476;DHT22;50739;45.670;11.936;2023-02-28T09:39:21;7.94;55.97
62476;DHT22;50739;45.670;11.936;2023-02-28T09:44:30;7.97;55.62
62476;DHT22;50739;45.670;11.936;2023-02-28T09:49:37;8.11;55.29
62476;DHT22;50739;45.670;11.936;2023-02-28T09:54:40;8.21;56.76
62476;DHT22;50739;45.670;11.936;2023-02-28T10:05:17;8.46;54.38
62476;DHT22;50739;45.670;11.936;2023-02-28T10:10:23;8.48;53.80
62476;DHT22;50739;45.670;11.936;2023-02-28T10:15:31;8.73;53.82
62476;DHT22;50739;45.670;11.936;2023-02-28T10:20:35;8.90;53.07
62476;DHT22;50739;45.670;11.936;2023-02-28T10:25:39;9.01;52.94
62476;DHT22;50739;45.670;11.936;2023-02-28T10:30:45;9.06;52.84
62476;DHT22;50739;45.670;11.936;2023-02-28T10:35:48;9.04;52.81
62476;DHT22;50739;45.670;11.936;2023-02-28T10:40:50;9.14;52.62
62476;DHT22;50739;45.670;11.936;2023-02-28T10:45:57;9.15;53.01
62476;DHT22;50739;45.670;11.936;2023-02-28T10:51:00;9.39;52.44
62476;DHT22;50739;45.670;11.936;2023-02-28T10:56:12;9.35;51.73
62476;DHT22;50739;45.670;11.936;2023-02-28T11:01:19;9.42;52.64
62476;DHT22;50739;45.670;11.936;2023-02-28T11:06:23;9.48;51.97
62476;DHT22;50739;45.670;11.936;2023-02-28T11:11:28;9.61;52.60
62476;DHT22;50739;45.670;11.936;2023-02-28T11:16:34;9.75;50.55
62476;DHT22;50739;45.670;11.936;2023-02-28T11:21:37;9.55;51.46
62476;DHT22;50739;45.670;11.936;2023-02-28T11:26:42;9.80;52.22
62476;DHT22;50739;45.670;11.936;2023-02-28T11:32:01;9.87;52.16
62476;DHT22;50739;45.670;11.936;2023-02-28T11:37:08;9.80;50.75
62476;DHT22;50739;45.670;11.936;2023-02-28T11:47:40;9.87;51.24
62476;DHT22;50739;45.670;11.936;2023-02-28T11:52:48;10.04;51.09
62476;DHT22;50739;45.670;11.936;2023-02-28T11:58:05;10.20;51.56
62476;DHT22;50739;45.670;11.936;2023-02-28T12:03:20;10.30;50.79
62476;DHT22;50739;45.670;11.936;2023-02-28T12:14:06;10.25;50.86
62476;DHT22;50739;45.670;11.936;2023-02-28T12:19:23;10.34;50.25
62476;DHT22;50739;45.670;11.936;2023-02-28T12:24:46;10.49;49.58
62476;DHT22;50739;45.670;11.936;2023-02-28T12:29:54;10.64;49.79
62476;DHT22;50739;45.670;11.936;2023-02-28T12:35:02;10.64;49.31
62476;DHT22;50739;45.670;11.936;2023-02-28T12:40:11;10.54;49.35
62476;DHT22;50739;45.670;11.936;2023-02-28T12:45:19;10.65;50.46
62476;DHT22;50739;45.670;11.936;2023-02-28T12:50:23;10.75;50.02
62476;DHT22;50739;45.670;11.936;2023-02-28T12:55:30;10.79;50.03
62476;DHT22;50739;45.670;11.936;2023-02-28T13:00:36;10.83;50.01
62476;DHT22;50739;45.670;11.936;2023-02-28T13:06:22;10.97;49.21
62476;DHT22;50739;45.670;11.936;2023-02-28T13:11:32;11.24;48.30
62476;DHT22;50739;45.670;11.936;2023-02-28T13:16:51;11.72;47.59
62476;DHT22;50739;45.670;11.936;2023-02-28T13:21:56;12.38;46.08
62476;DHT22;50739;45.670;11.936;2023-02-28T13:32:41;13.75;44.46
62476;DHT22;50739;45.670;11.936;2023-02-28T13:37:46;14.39;42.77
62476;DHT22;50739;45.670;11.936;2023-02-28T13:42:50;14.15;42.05
62476;DHT22;50739;45.670;11.936;2023-02-28T13:47:54;14.74;41.72
62476;DHT22;50739;45.670;11.936;2023-02-28T13:58:34;14.95;41.96
62476;DHT22;50739;45.670;11.936;2023-02-28T14:03:58;15.15;40.34
62476;DHT22;50739;45.670;11.936;2023-02-28T14:09:24;14.98;40.46
62476;DHT22;50739;45.670;11.936;2023-02-28T14:14:53;15.32;40.21
62476;DHT22;50739;45.670;11.936;2023-02-28T14:19:57;15.12;41.21
62476;DHT22;50739;45.670;11.936;2023-02-28T14:25:20;14.89;40.79
62476;DHT22;50739;45.670;11.936;2023-02-28T14:36:06;14.37;41.93
62476;DHT22;50739;45.670;11.936;2023-02-28T14:41:16;14.23;42.61
62476;DHT22;50739;45.670;11.936;2023-02-28T14:46:20;14.73;41.61
62476;DHT22;50739;45.670;11.936;2023-02-28T14:51:23;14.73;41.45
62476;DHT22;50739;45.670;11.936;2023-02-28T14:56:30;14.05;41.99
62476;DHT22;50739;45.670;11.936;2023-02-28T15:01:34;13.97;42.55
62476;DHT22;50739;45.670;11.936;2023-02-28T15:06:36;13.95;42.95
62476;DHT22;50739;45.670;11.936;2023-02-28T15:11:40;14.20;42.26
62476;DHT22;50739;45.670;11.936;2023-02-28T15:16:43;14.13;42.57
62476;DHT22;50739;45.670;11.936;2023-02-28T15:21:49;13.86;42.90
62476;DHT22;50739;45.670;11.936;2023-02-28T15:26:57;13.92;42.93
62476;DHT22;50739;45.670;11.936;2023-02-28T15:32:02;14.27;42.76
62476;DHT22;50739;45.670;11.936;2023-02-28T15:37:23;14.29;42.16
62476;DHT22;50739;45.670;11.936;2023-02-28T15:42:29;14.19;42.70
62476;DHT22;50739;45.670;11.936;2023-02-28T15:47:36;13.88;43.11
62476;DHT22;50739;45.670;11.936;2023-02-28T15:52:40;13.82;43.04
62476;DHT22;50739;45.670;11.936;2023-02-28T15:57:44;13.68;43.53
62476;DHT22;50739;45.670;11.936;2023-02-28T16:02:47;13.27;44.00
62476;DHT22;50739;45.670;11.936;2023-02-28T16:07:49;12.96;44.91
62476;DHT22;50739;45.670;11.936;2023-02-28T16:12:55;12.40;46.82
62476;DHT22;50739;45.670;11.936;2023-02-28T16:17:57;12.14;46.81
62476;DHT22;50739;45.670;11.936;2023-02-28T16:22:59;11.85;48.05
62476;DHT22;50739;45.670;11.936;2023-02-28T16:28:09;11.71;49.28
62476;DHT22;50739;45.670;11.936;2023-02-28T16:33:14;11.23;52.03
62476;DHT22;50739;45.670;11.936;2023-02-28T16:38:16;11.14;52.72
62476;DHT22;50739;45.670;11.936;2023-02-28T16:43:22;11.03;53.53
62476;DHT22;50739;45.670;11.936;2023-02-28T16:48:25;10.86;54.15
62476;DHT22;50739;45.670;11.936;2023-02-28T16:53:27;10.77;54.07
62476;DHT22;50739;45.670;11.936;2023-02-28T16:58:30;10.38;54.76
62476;DHT22;50739;45.670;11.936;2023-02-28T17:03:32;10.11;56.05
62476;DHT22;50739;45.670;11.936;2023-02-28T17:08:35;10.00;56.09
62476;DHT22;50739;45.670;11.936;2023-02-28T17:13:38;9.90;56.56
62476;DHT22;50739;45.670;11.936;2023-02-28T17:18:40;9.82;56.81
62476;DHT22;50739;45.670;11.936;2023-02-28T17:23:41;9.52;57.63
62476;DHT22;50739;45.670;11.936;2023-02-28T17:28:45;9.42;58.00
62476;DHT22;50739;45.670;11.936;2023-02-28T17:33:47;9.27;57.82
62476;DHT22;50739;45.670;11.936;2023-02-28T17:38:51;9.13;57.95
62476;DHT22;50739;45.670;11.936;2023-02-28T17:43:54;9.11;58.08
62476;DHT22;50739;45.670;11.936;2023-02-28T17:48:56;9.10;58.47
62476;DHT22;50739;45.670;11.936;2023-02-28T17:53:58;9.01;58.85
62476;DHT22;50739;45.670;11.936;2023-02-28T17:59:02;8.80;59.07
62476;DHT22;50739;45.670;11.936;2023-02-28T18:04:04;8.91;58.70
62476;DHT22;50739;45.670;11.936;2023-02-28T18:09:08;8.63;59.52
62476;DHT22;50739;45.670;11.936;2023-02-28T18:14:11;8.38;60.72
62476;DHT22;50739;45.670;11.936;2023-02-28T18:19:13;8.39;60.57
62476;DHT22;50739;45.670;11.936;2023-02-28T18:24:17;8.41;60.34
62476;DHT22;50739;45.670;11.936;2023-02-28T18:29:24;8.45;60.44
62476;DHT22;50739;45.670;11.936;2023-02-28T18:34:26;8.50;60.16
62476;DHT22;50739;45.670;11.936;2023-02-28T18:39:30;8.17;60.65
62476;DHT22;50739;45.670;11.936;2023-02-28T18:44:35;7.95;60.95
62476;DHT22;50739;45.670;11.936;2023-02-28T18:49:37;8.11;60.67
62476;DHT22;50739;45.670;11.936;2023-02-28T18:54:39;7.90;61.57
62476;DHT22;50739;45.670;11.936;2023-02-28T18:59:42;7.82;61.41
62476;DHT22;50739;45.670;11.936;2023-02-28T19:04:44;7.52;62.62
62476;DHT22;50739;45.670;11.936;2023-02-28T19:09:46;7.51;62.23
62476;DHT22;50739;45.670;11.936;2023-02-28T19:14:50;7.52;62.20
62476;DHT22;50739;45.670;11.936;2023-02-28T19:19:52;7.35;62.56
62476;DHT22;50739;45.670;11.936;2023-02-28T19:24:54;7.38;62.49
62476;DHT22;50739;45.670;11.936;2023-02-28T19:29:57;7.42;62.53
62476;DHT22;50739;45.670;11.936;2023-02-28T19:34:59;7.34;62.37
62476;DHT22;50739;45.670;11.936;2023-02-28T19:40:02;7.32;62.32
62476;DHT22;50739;45.670;11.936;2023-02-28T19:45:07;7.11;62.76
62476;DHT22;50739;45.670;11.936;2023-02-28T19:50:14;7.22;61.96
62476;DHT22;50739;45.670;11.936;2023-02-28T19:55:16;7.18;62.17
62476;DHT22;50739;45.670;11.936;2023-02-28T20:00:20;7.03;62.64
62476;DHT22;50739;45.670;11.936;2023-02-28T20:05:22;6.86;62.96
62476;DHT22;50739;45.670;11.936;2023-02-28T20:10:24;6.81;63.48
62476;DHT22;50739;45.670;11.936;2023-02-28T20:15:27;7.15;61.97
62476;DHT22;50739;45.670;11.936;2023-02-28T20:20:29;6.91;62.06
62476;DHT22;50739;45.670;11.936;2023-02-28T20:25:38;6.69;62.04
62476;DHT22;50739;45.670;11.936;2023-02-28T20:30:41;6.90;61.22
62476;DHT22;50739;45.670;11.936;2023-02-28T20:35:44;6.57;61.95
62476;DHT22;50739;45.670;11.936;2023-02-28T20:40:46;6.72;61.12
62476;DHT22;50739;45.670;11.936;2023-02-28T20:45:52;6.53;61.67
62476;DHT22;50739;45.670;11.936;2023-02-28T20:50:55;6.73;61.18
62476;DHT22;50739;45.670;11.936;2023-02-28T20:55:59;6.65;61.31
62476;DHT22;50739;45.670;11.936;2023-02-28T21:01:04;6.72;61.17
62476;DHT22;50739;45.670;11.936;2023-02-28T21:06:17;6.59;61.43
62476;DHT22;50739;45.670;11.936;2023-02-28T21:11:20;6.86;60.62
62476;DHT22;50739;45.670;11.936;2023-02-28T21:16:25;6.73;60.92
62476;DHT22;50739;45.670;11.936;2023-02-28T21:21:29;6.76;60.81
62476;DHT22;50739;45.670;11.936;2023-02-28T21:26:32;6.68;61.13
62476;DHT22;50739;45.670;11.936;2023-02-28T21:31:36;6.69;61.02
62476;DHT22;50739;45.670;11.936;2023-02-28T21:36:39;6.38;61.99
62476;DHT22;50739;45.670;11.936;2023-02-28T21:41:45;6.31;61.96
62476;DHT22;50739;45.670;11.936;2023-02-28T21:46:50;6.35;62.27
62476;DHT22;50739;45.670;11.936;2023-02-28T21:51:54;6.50;61.84
62476;DHT22;50739;45.670;11.936;2023-02-28T21:56:55;6.50;61.30
62476;DHT22;50739;45.670;11.936;2023-02-28T22:02:00;6.43;61.97
62476;DHT22;50739;45.670;11.936;2023-02-28T22:07:04;6.41;61.70
62476;DHT22;50739;45.670;11.936;2023-02-28T22:12:06;6.65;61.01
62476;DHT22;50739;45.670;11.936;2023-02-28T22:17:10;6.45;61.31
62476;DHT22;50739;45.670;11.936;2023-02-28T22:22:12;6.21;62.23
62476;DHT22;50739;45.670;11.936;2023-02-28T22:27:13;6.14;62.53
62476;DHT22;50739;45.670;11.936;2023-02-28T22:32:17;6.04;62.93
62476;DHT22;50739;45.670;11.936;2023-02-28T22:37:19;6.01;62.90
62476;DHT22;50739;45.670;11.936;2023-02-28T22:42:21;6.00;63.20
62476;DHT22;50739;45.670;11.936;2023-02-28T22:47:24;6.11;63.06
62476;DHT22;50739;45.670;11.936;2023-02-28T22:52:26;6.00;63.44
62476;DHT22;50739;45.670;11.936;2023-02-28T22:57:28;5.98;63.65
62476;DHT22;50739;45.670;11.936;2023-02-28T23:02:31;5.91;63.76
62476;DHT22;50739;45.670;11.936;2023-02-28T23:07:33;5.97;63.80
62476;DHT22;50739;45.670;11.936;2023-02-28T23:12:35;5.97;63.62
62476;DHT22;50739;45.670;11.936;2023-02-28T23:17:38;5.85;63.72
62476;DHT22;50739;45.670;11.936;2023-02-28T23:22:40;6.08;63.09
62476;DHT22;50739;45.670;11.936;2023-02-28T23:27:49;5.94;63.27
62476;DHT22;50739;45.670;11.936;2023-02-28T23:32:53;5.97;63.60
62476;DHT22;50739;45.670;11.936;2023-02-28T23:37:55;6.07;63.12
62476;DHT22;50739;45.670;11.936;2023-02-28T23:42:58;5.77;64.08
62476;DHT22;50739;45.670;11.936;2023-02-28T23:48:01;5.67;64.26
62476;DHT22;50739;45.670;11.936;2023-02-28T23:53:03;5.66;64.22
62476;DHT22;50739;45.670;11.936;2023-02-28T23:58:06;5.71;64.15
